Current Conditions
Partly Cloudy
Conditions



Pressure
1033.92 (hPa) - 30.53 (inHG)
Visibility

6.2 (miles) - 10.0 (km)
   Temperature
11  °C
Temperature
3  °C
Dewpoint
58  %
 Humidity
   Wind Speed
7  mph
6  kts
11  km/h
3.1  m/s
   Wind Direction
N
45°
E
90°
135°
S
180°
225°
W
270°
315°
 110°

East South
East
   Airport Data
EGPN
Dundee Airport
Metar :EGPN 141450Z 11006KT 9999 FEW030 11/03 Q1034
Wed 14th April 15:50 pm
   Raw Metar Info
Raw METAR is the most common format in the world for the transmission of observational weather data. It is highly standardized through the International Civil Aviation Organization (ICAO), which allows it to be understood throughout most of the world.
   API Info
Data Provided by
https://www.checkwx.com/weather/EGPN

Aviation Weather providing METAR, TAF, AIRMET, SIGMET and OUTLOOK Weather Reports
   © Info
CSS/SVG/PHP scripts were developed by weather34.com for use in the weather34 template © 2015-2021

Guide Info provided by Metar-Wikipedia